Time;durP1;ratioP1;P1;durP2;ratioP2;P2;SDS_P1;SDS_P2;PMS_P1;PMS_P2;Temp;Humidity;BMP_temperature;BMP_pressure;BME280_temperature;BME280_humidity;BME280_pressure;Samples;Min_cycle;Max_cycle;Signal;HPM_P1;HPM_P2
2022/07/11 00:00:08;;;;;;;7.13;3.13;;;19.60;99.90;;;17.42;100.00;101253.47;5101669;28;20460;-79
2022/07/11 00:02:36;;;;;;;9.43;3.40;;;19.60;99.90;;;17.42;99.70;101253.47;5110393;28;20090;-79
2022/07/11 00:05:03;;;;;;;11.35;3.22;;;19.60;99.90;;;17.44;99.97;101256.84;5110648;28;20134;-79
2022/07/11 00:07:30;;;;;;;7.72;3.10;;;19.60;99.90;;;17.44;99.83;101251.34;5103016;28;20088;-79
2022/07/11 00:09:59;;;;;;;7.13;3.25;;;19.60;99.90;;;17.42;100.00;101249.84;5101565;28;20043;-79
2022/07/11 00:12:26;;;;;;;8.77;3.00;;;19.50;99.90;;;17.42;100.00;101253.47;5110333;28;20146;-79
2022/07/11 00:14:54;;;;;;;11.07;3.65;;;19.50;99.90;;;17.36;100.00;101254.28;5110418;28;20043;-79
2022/07/11 00:17:21;;;;;;;7.13;3.47;;;19.50;99.90;;;17.32;100.00;101251.13;5103770;28;20127;-79
2022/07/11 00:19:48;;;;;;;9.68;3.20;;;19.50;99.90;;;17.27;100.00;101250.91;5101586;28;20040;-79
2022/07/11 00:22:16;;;;;;;8.70;3.10;;;19.50;99.90;;;17.26;100.00;101248.38;5110297;28;20047;-79
2022/07/11 00:24:43;;;;;;;8.57;3.17;;;19.50;99.90;;;17.25;100.00;101253.03;5110327;28;20043;-79
2022/07/11 00:27:13;;;;;;;9.27;3.25;;;19.50;99.90;;;17.28;100.00;101247.09;5099134;28;20552;-79
2022/07/11 00:29:40;;;;;;;6.83;3.30;;;19.50;99.90;;;17.25;100.00;101249.41;5097494;28;20097;-79
2022/07/11 00:32:08;;;;;;;7.90;2.95;;;19.50;99.90;;;17.20;100.00;101250.06;5100605;28;20456;-79
2022/07/11 00:34:36;;;;;;;10.15;3.60;;;19.40;99.90;;;17.20;100.00;101245.41;5110145;28;20094;-79
2022/07/11 00:37:03;;;;;;;6.82;3.55;;;19.40;99.90;;;17.24;100.00;101239.50;5099265;28;20123;-78
2022/07/11 00:39:31;;;;;;;7.78;2.90;;;19.40;99.90;;;17.22;100.00;101236.09;5101213;28;20758;-79
2022/07/11 00:41:58;;;;;;;8.80;3.30;;;19.40;99.90;;;17.23;100.00;101243.28;5109901;28;20036;-79
2022/07/11 00:44:26;;;;;;;7.70;3.00;;;19.40;99.90;;;17.22;100.00;101247.09;5110035;28;20046;-79
2022/07/11 00:46:53;;;;;;;7.13;2.70;;;19.40;99.90;;;17.14;100.00;101242.66;5104088;28;20048;-79
2022/07/11 00:49:21;;;;;;;7.57;3.00;;;19.40;99.90;;;17.13;100.00;101239.03;5101200;28;20473;-79
2022/07/11 00:51:50;;;;;;;7.78;3.05;;;19.40;99.90;;;17.07;100.00;101242.63;5110015;28;20081;-79
2022/07/11 00:54:20;;;;;;;8.52;3.03;;;19.40;99.90;;;16.99;100.00;101245.59;5110000;28;20048;-79
2022/07/11 00:56:47;;;;;;;6.60;2.90;;;19.40;99.90;;;16.95;100.00;101241.59;5105100;28;20044;-79
2022/07/11 00:59:18;;;;;;;9.85;2.80;;;19.40;99.90;;;16.94;100.00;101245.38;5100989;28;20039;-79
2022/07/11 01:01:47;;;;;;;7.93;3.17;;;19.30;99.90;;;16.87;100.00;101241.75;5091689;28;20068;-79
2022/07/11 01:04:14;;;;;;;8.23;2.90;;;19.30;99.90;;;16.87;100.00;101234.38;5110296;28;20044;-79
2022/07/11 01:06:41;;;;;;;7.80;2.58;;;19.30;99.90;;;16.86;100.00;101240.06;5106941;28;20663;-79
2022/07/11 01:09:08;;;;;;;6.25;3.00;;;19.30;99.90;;;16.82;100.00;101239.66;5103784;28;20044;-78
2022/07/11 01:11:36;;;;;;;8.48;2.92;;;19.30;99.90;;;16.80;100.00;101239.81;5114203;28;20046;-79
2022/07/11 01:14:03;;;;;;;7.32;2.95;;;19.30;99.90;;;16.81;100.00;101237.91;5113854;28;20578;-79
2022/07/11 01:16:30;;;;;;;9.55;3.22;;;19.20;99.90;;;16.85;100.00;101235.63;5105492;28;20046;-79
2022/07/11 01:19:00;;;;;;;9.60;3.22;;;19.20;99.90;;;16.83;100.00;101233.09;5104997;28;20071;-79
2022/07/11 01:21:31;;;;;;;7.13;2.70;;;19.20;99.90;;;16.83;100.00;101235.84;5095176;28;20424;-78
2022/07/11 01:24:03;;;;;;;9.27;3.17;;;19.20;99.90;;;16.85;100.00;101239.25;5113799;28;20043;-79
2022/07/11 01:26:32;;;;;;;6.35;2.75;;;19.20;99.90;;;16.86;100.00;101237.31;5105701;28;20119;-79
2022/07/11 01:29:07;;;;;;;9.93;2.70;;;19.20;99.90;;;16.79;100.00;101235.38;5102484;28;20071;-79
2022/07/11 01:31:35;;;;;;;9.18;3.10;;;19.20;99.90;;;16.79;100.00;101232.63;5094887;28;20043;-79
2022/07/11 01:34:02;;;;;;;9.23;2.90;;;19.10;99.90;;;16.77;100.00;101234.75;5095944;28;20473;-79
2022/07/11 01:36:30;;;;;;;10.10;2.70;;;19.20;99.90;;;16.71;100.00;101237.47;5101429;28;20118;-79
2022/07/11 01:38:58;;;;;;;9.05;2.90;;;19.10;99.90;;;16.70;100.00;101228.38;5101482;28;20040;-78
2022/07/11 01:41:25;;;;;;;7.90;2.75;;;19.10;99.90;;;16.69;100.00;101237.66;5113181;28;20081;-79
2022/07/11 01:43:53;;;;;;;9.55;2.85;;;19.10;99.90;;;16.60;100.00;101237.03;5102134;28;20136;-79
2022/07/11 01:46:21;;;;;;;6.28;2.92;;;19.10;99.90;;;16.52;100.00;101226.19;5104543;28;20028;-79
2022/07/11 01:48:49;;;;;;;8.50;2.80;;;19.10;99.90;;;16.47;100.00;101227.88;5112639;28;20040;-79
2022/07/11 01:51:16;;;;;;;7.68;2.65;;;19.10;99.90;;;16.39;100.00;101227.03;5093459;28;20036;-79
2022/07/11 01:53:44;;;;;;;8.10;3.00;;;19.00;99.90;;;16.34;100.00;101234.19;5075771;28;20051;-79
2022/07/11 01:56:12;;;;;;;6.55;2.90;;;19.00;99.90;;;16.28;100.00;101230.38;5085410;28;20139;-79
2022/07/11 01:58:39;;;;;;;6.28;2.80;;;19.00;99.90;;;16.27;100.00;101231.41;5112717;28;20039;-79
2022/07/11 02:01:07;;;;;;;7.50;2.60;;;19.00;99.90;;;16.24;100.00;101229.09;5101407;28;20048;-78
2022/07/11 02:03:34;;;;;;;7.43;3.20;;;19.00;99.90;;;16.18;100.00;101225.25;5104338;28;20058;-79
2022/07/11 02:06:01;;;;;;;8.50;2.80;;;18.90;99.90;;;16.13;100.00;101230.50;5112762;28;20040;-79
2022/07/11 02:08:28;;;;;;;8.50;2.60;;;18.90;99.90;;;16.10;100.00;101222.66;5112375;28;20047;-79
2022/07/11 02:10:55;;;;;;;7.55;2.65;;;18.90;99.90;;;16.05;100.00;101219.69;5107011;28;20056;-79
2022/07/11 02:13:24;;;;;;;8.77;3.30;;;18.80;99.90;;;16.02;100.00;101215.44;5103824;28;20083;-79
2022/07/11 02:15:53;;;;;;;7.25;2.90;;;18.80;99.90;;;16.01;100.00;101221.13;5112497;28;20109;-79
2022/07/11 02:18:21;;;;;;;9.18;3.00;;;18.80;99.90;;;16.02;100.00;101214.59;5111633;28;20039;-79
2022/07/11 02:20:49;;;;;;;7.93;2.90;;;18.80;99.90;;;16.07;100.00;101222.22;5108180;28;20101;-79
2022/07/11 02:23:17;;;;;;;7.95;2.97;;;18.80;99.90;;;16.09;100.00;101220.09;5091995;28;20040;-79
2022/07/11 02:25:45;;;;;;;7.57;2.90;;;18.80;99.90;;;16.12;100.00;101220.56;5091961;28;20649;-78
2022/07/11 02:28:13;;;;;;;7.80;2.95;;;18.80;99.90;;;16.16;100.00;101223.75;5091764;28;20116;-79
2022/07/11 02:30:43;;;;;;;9.07;2.90;;;18.80;99.90;;;16.20;100.00;101225.03;5091189;28;20075;-79
2022/07/11 02:33:15;;;;;;;6.70;2.85;;;18.80;99.90;;;16.22;100.00;101228.41;5103019;28;20122;-79
2022/07/11 02:35:42;;;;;;;9.80;3.15;;;18.80;99.90;;;16.29;100.00;101228.44;5089153;28;20048;-79
2022/07/11 02:38:10;;;;;;;8.15;2.58;;;18.80;99.90;;;16.29;100.00;101234.78;5102452;28;20119;-79
2022/07/11 02:40:37;;;;;;;10.82;2.88;;;18.80;99.90;;;16.33;100.00;101233.31;5109840;28;20118;-79
2022/07/11 02:43:05;;;;;;;10.13;3.03;;;18.80;99.90;;;16.34;100.00;101229.53;5101983;28;20481;-79
2022/07/11 02:45:32;;;;;;;10.60;3.10;;;18.80;99.90;;;16.39;100.00;101227.03;5112034;28;20039;-79
2022/07/11 02:48:01;;;;;;;8.35;2.92;;;18.80;99.90;;;16.39;100.00;101229.78;5111750;28;20134;-79
2022/07/11 02:50:28;;;;;;;8.25;3.00;;;18.80;99.90;;;16.40;100.00;101225.97;5111223;28;20118;-79
2022/07/11 02:52:56;;;;;;;9.82;3.03;;;18.80;99.90;;;16.44;100.00;101228.31;5097181;28;20483;-79
2022/07/11 02:55:23;;;;;;;8.60;2.60;;;18.80;99.90;;;16.44;100.00;101225.56;5111730;28;20410;-79
2022/07/11 02:57:50;;;;;;;9.00;3.25;;;18.80;99.90;;;16.43;100.00;101224.72;5111821;28;20050;-79
2022/07/11 03:00:19;;;;;;;6.18;2.90;;;18.80;99.90;;;16.48;100.00;101224.09;5074762;28;20052;-79
2022/07/11 03:02:46;;;;;;;9.23;2.90;;;18.80;99.90;;;16.49;100.00;101229.38;5095063;28;20115;-79
2022/07/11 03:05:15;;;;;;;8.13;3.22;;;18.80;99.90;;;16.52;100.00;101225.38;5102732;28;20074;-79
2022/07/11 03:07:42;;;;;;;10.10;3.28;;;18.80;99.90;;;16.56;100.00;101232.13;5103953;28;20558;-79
2022/07/11 03:10:10;;;;;;;9.38;3.00;;;18.80;99.90;;;16.56;100.00;101230.25;5101646;28;20036;-79
2022/07/11 03:12:38;;;;;;;8.25;3.03;;;18.90;99.90;;;16.56;100.00;101232.13;5111300;28;20047;-79
2022/07/11 03:15:07;;;;;;;7.85;3.00;;;18.90;99.90;;;16.60;100.00;101233.41;5111384;28;20075;-79
2022/07/11 03:17:34;;;;;;;12.57;3.55;;;18.90;99.90;;;16.61;100.00;101230.47;5109151;28;20156;-79
2022/07/11 03:20:01;;;;;;;8.82;2.58;;;18.90;99.90;;;16.61;100.00;101229.63;5102301;28;20049;-79
2022/07/11 03:22:30;;;;;;;12.30;2.72;;;18.90;99.90;;;16.67;100.00;101238.94;5111112;28;20092;-79
2022/07/11 03:24:57;;;;;;;7.05;2.60;;;18.90;99.90;;;16.65;100.00;101228.16;5104546;28;20389;-79
2022/07/11 03:27:24;;;;;;;6.88;2.78;;;18.90;99.90;;;16.66;100.00;101231.75;5102517;28;20044;-79
2022/07/11 03:29:52;;;;;;;6.88;2.55;;;18.90;99.90;;;16.62;100.00;101236.81;5110602;28;20488;-79
2022/07/11 03:32:20;;;;;;;7.85;2.92;;;18.90;99.90;;;16.63;100.00;101237.66;5111078;28;20043;-79
2022/07/11 03:35:40;;;;;;;8.88;3.20;;;18.90;99.90;;;16.65;100.00;101241.91;5103413;28;20089;-79
2022/07/11 03:37:36;;;;;;;7.60;2.50;;;18.90;99.90;;;16.64;100.00;101237.47;5095141;28;20804;-79
2022/07/11 03:40:05;;;;;;;6.68;2.05;;;18.90;99.90;;;16.66;100.00;101243.59;5090399;28;20051;-79
2022/07/11 03:42:32;;;;;;;6.63;1.92;;;18.90;99.90;;;16.65;100.00;101246.56;5090635;28;20545;-79
2022/07/11 03:45:00;;;;;;;6.07;2.60;;;18.90;99.90;;;16.66;100.00;101243.59;5089260;28;20075;-79
2022/07/11 03:47:28;;;;;;;5.22;2.00;;;18.90;99.90;;;16.66;100.00;101243.59;5098673;28;20066;-79
2022/07/11 03:49:55;;;;;;;5.53;1.83;;;18.90;99.90;;;16.65;100.00;101247.38;5107525;28;20043;-79
2022/07/11 03:52:22;;;;;;;4.60;1.85;;;18.90;99.90;;;16.65;100.00;101250.13;5110609;28;20035;-79
2022/07/11 03:54:50;;;;;;;6.22;1.58;;;18.90;99.90;;;16.65;100.00;101247.38;5106180;28;20085;-79
2022/07/11 03:57:18;;;;;;;7.30;2.17;;;18.90;99.90;;;16.63;100.00;101243.16;5087923;28;20032;-79
2022/07/11 03:59:45;;;;;;;6.78;1.95;;;18.90;99.90;;;16.66;100.00;101249.09;5069633;28;20495;-79
2022/07/11 04:02:12;;;;;;;5.15;1.73;;;18.90;99.90;;;16.68;100.00;101249.75;5069988;28;20140;-79
2022/07/11 04:04:39;;;;;;;4.60;1.63;;;18.90;99.90;;;16.68;100.00;101248.88;5052463;28;20047;-79
2022/07/11 04:07:06;;;;;;;5.30;1.80;;;18.90;99.90;;;16.62;100.00;101247.81;5098412;28;20043;-79
2022/07/11 04:09:34;;;;;;;6.30;1.90;;;18.90;99.90;;;16.64;100.00;101245.72;5104226;28;20046;-79
2022/07/11 04:14:42;;;;;;;4.57;1.63;;;18.90;99.90;;;16.66;100.00;101243.59;5047233;28;20073;-81
2022/07/11 04:17:09;;;;;;;3.60;1.35;;;18.90;99.90;;;16.70;100.00;101242.13;5047296;28;20049;-81
2022/07/11 04:19:38;;;;;;;4.43;1.50;;;18.90;99.90;;;16.70;100.00;101235.78;5029698;28;20485;-81
2022/07/11 04:22:05;;;;;;;4.97;1.60;;;18.90;99.90;;;16.71;100.00;101241.06;5029841;28;20119;-81
2022/07/11 04:24:33;;;;;;;6.43;1.30;;;18.90;99.90;;;16.68;100.00;101249.75;5029791;28;20133;-81
2022/07/11 04:27:01;;;;;;;4.00;1.52;;;18.90;99.90;;;16.72;100.00;101253.75;5040509;28;20545;-81
2022/07/11 04:29:28;;;;;;;4.15;1.55;;;18.90;99.90;;;16.74;100.00;101257.16;5049195;28;20041;-81
2022/07/11 04:31:56;;;;;;;4.25;1.40;;;18.90;99.90;;;16.77;100.00;101256.75;5049685;28;20463;-81
2022/07/11 04:34:23;;;;;;;6.05;1.83;;;18.90;99.90;;;16.73;100.00;101260.09;5049455;28;20055;-81
2022/07/11 04:36:50;;;;;;;7.72;1.80;;;18.90;99.90;;;16.74;100.00;101257.16;5030936;28;20441;-81
2022/07/11 04:39:17;;;;;;;5.30;1.83;;;19.00;99.90;;;16.75;100.00;101253.34;5029371;28;20088;-81
2022/07/11 04:41:44;;;;;;;5.93;1.80;;;18.90;99.90;;;16.76;100.00;101248.69;5030519;28;20053;-81
2022/07/11 04:44:13;;;;;;;5.32;1.80;;;18.90;99.90;;;16.77;100.00;101251.25;5033744;28;20053;-81
2022/07/11 04:46:40;;;;;;;4.72;2.10;;;18.90;99.90;;;16.78;100.00;101255.66;5042706;28;20033;-81
2022/07/11 04:49:07;;;;;;;5.32;1.85;;;18.90;99.90;;;16.80;100.00;101259.06;5051893;28;20043;-81
2022/07/11 04:51:36;;;;;;;5.35;1.70;;;19.10;99.90;;;16.80;100.00;101258.22;5053880;28;20425;-81
2022/07/11 04:54:03;;;;;;;3.67;1.80;;;19.00;99.90;;;16.78;100.00;101263.91;5053482;28;20046;-81
2022/07/11 04:56:30;;;;;;;4.72;1.75;;;18.90;99.90;;;16.80;100.00;101260.97;5047422;28;20514;-81
2022/07/11 04:58:57;;;;;;;9.25;2.25;;;18.90;99.90;;;16.81;100.00;101265.41;5050498;28;20068;-81
2022/07/11 05:01:28;;;;;;;4.50;1.73;;;18.90;99.90;;;16.83;100.00;101265.22;5053248;28;20041;-81
2022/07/11 05:03:56;;;;;;;3.10;1.60;;;19.00;99.90;;;16.80;100.00;101270.06;5053247;28;20053;-81
2022/07/11 05:06:23;;;;;;;4.80;2.00;;;19.00;99.90;;;16.81;100.00;101269.00;5051667;28;20060;-81
2022/07/11 05:08:50;;;;;;;4.32;1.73;;;19.00;99.90;;;16.81;100.00;101268.16;5044267;28;20499;-81
2022/07/11 05:11:17;;;;;;;3.85;1.80;;;19.00;99.90;;;16.83;100.00;101270.72;5033283;28;20052;-81
2022/07/11 05:13:45;;;;;;;3.72;1.48;;;19.00;99.90;;;16.83;100.00;101270.72;5033057;28;20132;-81
2022/07/11 05:16:12;;;;;;;6.72;1.92;;;19.00;99.90;;;16.81;100.00;101266.25;5046497;28;20128;-81
2022/07/11 05:18:41;;;;;;;4.72;1.88;;;19.00;99.90;;;16.79;100.00;101273.00;5047661;28;20129;-81
2022/07/11 05:21:08;;;;;;;5.20;1.67;;;19.00;99.90;;;16.77;100.00;101267.75;5052949;28;20116;-82
2022/07/11 05:23:35;;;;;;;6.20;2.25;;;19.00;99.90;;;16.79;100.00;101278.50;5053066;28;20328;-81
2022/07/11 05:26:04;;;;;;;3.20;1.20;;;19.00;99.90;;;16.76;100.00;101281.69;5050798;28;20416;-81
2022/07/11 05:28:31;;;;;;;3.60;1.10;;;19.00;99.90;;;16.78;100.00;101280.41;5046204;28;20036;-81
2022/07/11 05:30:58;;;;;;;4.53;1.50;;;18.90;99.90;;;16.78;100.00;101280.41;5052587;28;20055;-81
2022/07/11 05:33:25;;;;;;;3.83;1.00;;;18.90;99.90;;;16.81;100.00;101285.50;5052677;28;20055;-81
2022/07/11 05:35:54;;;;;;;2.85;1.02;;;19.00;99.90;;;16.83;100.00;101281.72;5033837;28;20045;-81
2022/07/11 05:38:21;;;;;;;3.92;1.30;;;19.00;99.90;;;16.84;100.00;101286.19;5044668;28;20045;-81
2022/07/11 05:40:49;;;;;;;4.90;1.30;;;19.10;99.90;;;16.87;100.00;101288.50;5052752;28;20040;-81
2022/07/11 05:43:16;;;;;;;2.80;1.10;;;19.00;99.90;;;16.86;100.00;101287.66;5052544;28;20048;-81
2022/07/11 05:45:43;;;;;;;4.28;1.30;;;19.00;99.90;;;16.90;100.00;101294.44;5051873;28;20060;-81
2022/07/11 05:48:10;;;;;;;3.28;0.90;;;19.00;99.90;;;16.95;100.00;101291.06;5041050;28;20045;-81
2022/07/11 05:50:37;;;;;;;5.93;1.13;;;19.00;99.90;;;16.96;100.00;101287.25;5052278;28;20047;-81
2022/07/11 05:53:07;;;;;;;3.78;1.30;;;19.00;99.90;;;16.99;100.00;101295.09;5051016;28;20053;-81
2022/07/11 05:55:34;;;;;;;2.55;1.08;;;19.00;99.90;;;17.04;100.00;101294.47;5050735;28;20505;-81
2022/07/11 05:58:01;;;;;;;3.38;1.20;;;19.00;99.90;;;17.06;100.00;101295.97;5043990;28;20073;-81
2022/07/11 06:00:28;;;;;;;2.15;1.00;;;19.00;99.90;;;17.05;98.93;101302.50;5052089;28;20128;-81
2022/07/11 06:02:55;;;;;;;2.65;1.10;;;19.00;99.90;;;17.05;99.50;101299.75;5052404;28;20048;-81
2022/07/11 06:05:23;;;;;;;3.78;1.27;;;19.00;99.90;;;17.06;99.35;101298.72;5051383;28;20091;-81
2022/07/11 06:10:36;;;;;;;3.08;1.27;;;19.00;99.90;;;17.08;99.42;101304.84;5051838;28;20439;-81
2022/07/11 06:13:03;;;;;;;3.80;1.50;;;19.10;99.90;;;17.12;99.08;101306.13;5051798;28;20080;-81
2022/07/11 06:15:30;;;;;;;2.13;0.90;;;19.10;99.90;;;17.18;99.13;101307.19;5050244;28;20409;-81
2022/07/11 06:17:58;;;;;;;3.13;1.30;;;19.10;99.90;;;17.28;98.29;101306.78;5043564;28;20515;-81
2022/07/11 06:20:25;;;;;;;3.22;1.30;;;19.10;99.90;;;17.39;98.28;101304.25;5051013;28;20489;-81
2022/07/11 06:22:53;;;;;;;4.47;1.20;;;19.00;99.90;;;17.39;96.59;101308.91;5043521;28;20037;-81
2022/07/11 06:25:20;;;;;;;3.28;1.45;;;19.10;99.90;;;17.43;97.34;101315.69;5050124;28;20049;-81
2022/07/11 06:27:49;;;;;;;3.90;1.67;;;19.10;99.90;;;17.43;96.92;101312.09;5043309;28;20541;-81
2022/07/11 06:30:16;;;;;;;4.85;2.08;;;19.20;99.90;;;17.42;96.99;101316.75;5051222;28;20070;-81
2022/07/11 06:32:43;;;;;;;4.15;1.67;;;19.20;99.90;;;17.43;97.72;101304.69;5047132;28;20049;-81
2022/07/11 06:35:10;;;;;;;4.68;1.65;;;19.20;99.90;;;17.47;97.61;101314.22;5043766;28;20047;-81
2022/07/11 06:37:37;;;;;;;5.00;1.70;;;19.20;99.90;;;17.48;97.36;101313.16;5041640;28;20051;-81
2022/07/11 06:40:11;;;;;;;5.55;1.73;;;19.30;99.90;;;17.47;97.96;101310.63;5025595;28;20037;-82
2022/07/11 06:42:39;;;;;;;5.30;1.50;;;19.30;99.90;;;17.50;99.91;101301.94;5038695;28;20040;-81
2022/07/11 06:45:11;;;;;;;4.35;1.70;;;19.20;99.90;;;17.56;98.67;101312.09;5032329;28;20136;-81
2022/07/11 06:47:38;;;;;;;2.80;1.40;;;19.30;99.90;;;17.54;98.42;101312.31;5043945;28;20512;-82
2022/07/11 06:50:07;;;;;;;3.25;1.40;;;19.30;99.90;;;17.53;98.97;101310.59;5042647;28;20460;-81
2022/07/11 06:52:34;;;;;;;4.47;1.40;;;19.30;99.90;;;17.56;99.79;101310.19;5049599;28;20056;-81
2022/07/11 06:55:01;;;;;;;4.30;1.55;;;19.30;99.90;;;17.59;99.68;101315.28;5039100;28;20124;-81
2022/07/11 06:57:28;;;;;;;3.60;1.67;;;19.40;99.90;;;17.66;98.02;101308.94;5043103;28;20048;-81
2022/07/11 06:59:55;;;;;;;4.50;1.50;;;19.40;99.90;;;17.65;98.56;101309.97;5045201;28;20045;-81
2022/07/11 07:02:28;;;;;;;3.17;1.38;;;19.40;99.90;;;17.69;99.80;101314.03;5045198;28;20044;-81
2022/07/11 07:04:55;;;;;;;3.15;1.63;;;19.30;99.90;;;17.70;98.89;101315.69;5039828;28;20120;-81
2022/07/11 07:07:22;;;;;;;4.30;2.00;;;19.40;99.90;;;17.71;100.00;101321.00;5039322;28;20086;-81
2022/07/11 07:09:49;;;;;;;5.07;2.10;;;19.40;99.90;;;17.69;99.54;101319.53;5041930;28;20497;-81
2022/07/11 07:12:16;;;;;;;4.47;1.65;;;19.40;99.90;;;17.64;100.00;101316.56;5038947;28;20057;-81
2022/07/11 07:14:44;;;;;;;4.22;2.05;;;19.40;99.90;;;17.68;100.00;101315.91;5032450;28;20132;-81
2022/07/11 07:17:11;;;;;;;5.70;2.10;;;19.40;99.90;;;17.69;100.00;101319.53;5043279;28;20053;-79
2022/07/11 07:19:39;;;;;;;7.70;3.30;;;19.40;99.90;;;17.68;99.37;101328.81;5036060;28;20056;-79
2022/07/11 07:22:08;;;;;;;8.57;3.60;;;19.50;99.90;;;17.66;99.79;101325.44;5042169;28;20124;-79
2022/07/11 07:24:36;;;;;;;8.45;3.17;;;19.40;99.90;;;17.63;99.76;101323.09;5048700;28;20568;-79
2022/07/11 07:27:04;;;;;;;9.07;3.35;;;19.40;99.90;;;17.61;100.00;101325.22;5047618;28;20087;-81
2022/07/11 07:29:32;;;;;;;8.13;3.58;;;19.40;99.90;;;17.57;100.00;101324.78;5048534;28;20136;-81
2022/07/11 07:31:59;;;;;;;8.35;3.33;;;19.40;99.90;;;17.61;100.00;101330.72;5041035;28;20041;-80
2022/07/11 07:34:27;;;;;;;8.18;3.58;;;19.40;99.90;;;17.61;100.00;101327.97;5043364;28;20048;-81
2022/07/11 07:36:55;;;;;;;5.85;2.90;;;19.40;99.90;;;17.61;100.00;101322.47;5050603;28;20513;-81
2022/07/11 07:39:22;;;;;;;9.63;2.20;;;19.40;99.90;;;17.53;100.00;101320.78;5045231;28;20065;-80
2022/07/11 07:41:50;;;;;;;10.50;3.05;;;19.40;99.90;;;17.51;100.00;101323.72;5041554;28;20041;-81
2022/07/11 07:44:17;;;;;;;4.90;2.13;;;19.40;99.90;;;17.49;100.00;101334.09;5050312;28;20041;-81
2022/07/11 07:46:44;;;;;;;5.82;2.70;;;19.40;99.90;;;17.48;100.00;101335.19;5050440;28;20045;-80
2022/07/11 07:49:11;;;;;;;6.15;2.80;;;19.40;99.90;;;17.49;100.00;101336.00;5049792;28;20122;-81
2022/07/11 07:51:39;;;;;;;7.07;3.03;;;19.40;99.90;;;17.53;100.00;101332.63;5043200;28;20501;-80
2022/07/11 07:54:07;;;;;;;4.80;2.90;;;19.40;99.90;;;17.55;100.00;101335.16;5017373;28;20580;-80
2022/07/11 07:56:34;;;;;;;5.93;4.10;;;19.40;99.90;;;17.57;100.00;101333.91;5045420;28;20055;-80
2022/07/11 07:59:01;;;;;;;7.70;4.28;;;19.40;99.90;;;17.60;100.00;101338.16;5045464;28;20130;-80
2022/07/11 08:01:37;;;;;;;9.27;4.80;;;19.40;99.90;;;17.64;100.00;101327.56;5045312;28;20044;-80
2022/07/11 08:04:05;;;;;;;7.55;3.40;;;19.40;99.90;;;17.68;100.00;101317.81;5041277;28;20092;-80
2022/07/11 08:06:32;;;;;;;5.95;2.80;;;19.40;99.90;;;17.77;100.00;101322.06;5042098;28;20059;-80
2022/07/11 08:09:00;;;;;;;5.38;2.00;;;19.50;99.90;;;17.78;100.00;101324.59;5042714;28;20116;-80
2022/07/11 08:11:30;;;;;;;8.50;2.20;;;19.50;99.90;;;17.74;100.00;101319.72;5049888;28;20045;-80
2022/07/11 08:13:57;;;;;;;5.65;3.40;;;19.50;99.90;;;17.70;100.00;101315.69;5047970;28;20120;-80
2022/07/11 08:16:24;;;;;;;6.72;2.95;;;19.50;99.90;;;17.67;100.00;101327.13;5021294;28;20060;-80
2022/07/11 08:18:53;;;;;;;10.20;6.40;;;19.50;99.90;;;17.69;100.00;101314.84;5044173;28;20048;-80
2022/07/11 08:21:20;;;;;;;14.35;11.02;;;19.50;99.90;;;17.74;100.00;101328.84;5049821;28;20044;-80
2022/07/11 08:23:47;;;;;;;21.00;17.20;;;19.50;99.90;;;17.84;100.00;101327.53;5046519;28;20521;-80
2022/07/11 08:26:15;;;;;;;20.70;16.55;;;19.50;99.90;;;18.04;100.00;101333.06;5044169;28;20079;-80
2022/07/11 08:28:43;;;;;;;23.50;17.70;;;19.50;99.90;;;18.27;100.00;101321.59;5037146;28;20076;-80
2022/07/11 08:31:10;;;;;;;20.08;16.63;;;19.60;99.90;;;18.46;100.00;101325.34;5044778;28;20087;-80
2022/07/11 08:33:38;;;;;;;19.13;15.07;;;19.60;99.90;;;18.63;97.26;101323.78;5043073;28;20040;-80
2022/07/11 08:36:07;;;;;;;16.10;12.23;;;19.60;99.90;;;18.87;96.05;101321.41;5021335;28;20420;-80
2022/07/11 08:38:34;;;;;;;13.52;10.40;;;19.60;99.90;;;19.01;94.40;101323.00;5038397;28;20126;-80
2022/07/11 08:41:02;;;;;;;11.40;8.20;;;19.70;99.90;;;18.95;93.92;101323.91;5049415;28;20028;-80
2022/07/11 08:43:30;;;;;;;9.52;6.72;;;19.80;99.90;;;18.89;93.93;101324.78;5049513;28;20049;-80
2022/07/11 08:45:59;;;;;;;8.80;5.60;;;19.80;99.90;;;18.75;93.47;101323.94;5041428;28;20049;-80
2022/07/11 08:48:27;;;;;;;9.45;6.53;;;19.80;99.90;;;18.67;92.52;101329.72;5044411;28;20182;-80
2022/07/11 08:50:54;;;;;;;9.40;6.57;;;19.90;99.90;;;18.63;94.89;101332.06;5042582;28;20063;-80
2022/07/11 08:53:21;;;;;;;9.02;5.90;;;19.90;99.90;;;18.55;93.30;101335.91;5033474;28;20033;-81
2022/07/11 08:55:48;;;;;;;8.23;5.13;;;19.90;99.90;;;18.38;94.72;101331.09;5049304;28;20051;-81
2022/07/11 08:58:15;;;;;;;8.43;5.30;;;19.90;99.90;;;18.30;95.03;101335.78;5047589;28;20116;-80
2022/07/11 09:00:44;;;;;;;7.65;5.03;;;19.90;99.90;;;18.25;97.71;101340.25;5040999;28;20442;-79
2022/07/11 09:03:17;;;;;;;7.55;5.47;;;19.90;99.90;;;18.15;98.47;101340.69;5049229;28;20452;-78
2022/07/11 09:05:45;;;;;;;9.65;5.18;;;19.90;99.90;;;18.06;98.09;101336.47;5040249;28;20052;-78
2022/07/11 09:08:12;;;;;;;8.23;6.50;;;19.90;99.90;;;17.97;98.21;101339.44;5047668;28;20115;-79
2022/07/11 09:10:41;;;;;;;10.27;6.55;;;19.80;99.90;;;17.93;99.87;101340.06;5041705;28;20033;-79
2022/07/11 09:13:11;;;;;;;7.68;5.75;;;19.80;99.90;;;17.91;99.75;101343.03;5047592;28;20688;-81
2022/07/11 09:15:40;;;;;;;7.20;4.95;;;19.80;99.90;;;17.89;100.00;101336.88;5049343;28;20769;-79
2022/07/11 09:18:36;;;;;;;7.93;4.25;;;19.80;99.90;;;17.93;100.00;101343.69;5047763;28;20063;-79
2022/07/11 09:26:40;;;;;;;8.68;4.03;;;19.80;99.90;;;18.26;100.00;101331.78;5042130;28;20044;-79
2022/07/11 09:29:10;;;;;;;7.35;3.60;;;19.80;99.90;;;18.49;100.00;101330.44;5045284;28;20055;-79
2022/07/11 09:31:40;;;;;;;10.90;7.80;;;19.80;99.90;;;18.65;99.28;101327.16;5047361;28;20087;-79
2022/07/11 09:34:11;;;;;;;8.50;7.22;;;19.80;99.90;;;18.91;98.63;101333.69;5049484;28;20057;-79
2022/07/11 09:36:44;;;;;;;9.98;6.00;;;19.90;99.90;;;19.18;96.63;101319.72;5053085;28;20057;-79
2022/07/11 09:39:14;;;;;;;9.25;5.63;;;19.90;99.90;;;19.31;97.09;101312.19;5038946;28;20478;-79
2022/07/11 09:41:43;;;;;;;7.35;4.95;;;20.00;99.90;;;19.28;95.47;101317.31;5039177;28;20108;-79
2022/07/11 09:44:17;;;;;;;6.55;3.80;;;20.10;99.90;;;19.27;94.21;101321.16;5043956;28;20053;-79
2022/07/11 09:46:47;;;;;;;5.70;3.50;;;20.10;99.90;;;19.21;94.78;101317.38;5052402;28;20041;-79
2022/07/11 09:49:18;;;;;;;6.78;3.90;;;20.10;99.90;;;19.07;94.27;101316.59;5048978;28;20595;-79
2022/07/11 09:51:45;;;;;;;4.28;3.05;;;20.20;99.90;;;19.01;95.04;101316.66;5040264;28;20132;-79
2022/07/11 09:54:13;;;;;;;4.43;3.00;;;20.20;99.90;;;18.95;94.86;101318.38;5042932;28;20137;-79
2022/07/11 09:56:43;;;;;;;4.93;2.80;;;20.20;99.90;;;18.89;95.42;101322.03;5051467;28;20041;-79
2022/07/11 09:59:13;;;;;;;7.70;5.07;;;20.20;99.90;;;18.85;94.74;101326.25;5049560;28;20520;-79
2022/07/11 10:01:40;;;;;;;6.70;4.32;;;20.20;99.90;;;18.85;94.62;101323.50;5047769;28;20067;-80
2022/07/11 10:04:10;;;;;;;7.07;5.47;;;20.20;99.90;;;18.93;93.19;101326.03;5044575;28;20146;-79
2022/07/11 10:06:40;;;;;;;8.32;6.38;;;20.20;99.90;;;18.98;92.21;101334.47;5043890;28;20468;-79
2022/07/11 10:09:08;;;;;;;8.68;6.55;;;20.20;99.90;;;19.05;93.13;101329.78;5040432;28;20513;-79
2022/07/11 10:11:35;;;;;;;9.85;7.07;;;20.20;99.90;;;19.14;91.23;101324.84;5033948;28;20484;-79
2022/07/11 10:14:07;;;;;;;8.38;6.35;;;20.20;99.90;;;19.10;92.31;101321.69;5050283;28;20041;-79
2022/07/11 10:16:49;;;;;;;7.60;5.50;;;20.20;99.90;;;19.10;92.40;101318.09;5050214;28;20051;-79
2022/07/11 10:19:32;;;;;;;6.22;4.18;;;20.20;99.90;;;19.07;92.68;101327.63;5048146;28;20402;-79
2022/07/11 10:22:13;;;;;;;5.72;2.92;;;20.30;99.90;;;19.00;91.57;101335.13;5046025;28;20123;-80